createdAt,value
2023-04-16T00:02:01.559Z,96254.84
2023-04-16T00:04:28.629Z,96257.53
2023-04-16T00:06:55.706Z,96253.69
2023-04-16T00:09:22.617Z,96253.94
2023-04-16T00:11:49.451Z,96256.97
2023-04-16T00:14:16.279Z,96257.50
2023-04-16T00:16:43.151Z,96250.66
2023-04-16T00:19:10.238Z,96262.19
2023-04-16T00:21:37.175Z,96268.09
2023-04-16T00:24:04.084Z,96262.19
2023-04-16T00:26:30.901Z,96267.75
2023-04-16T00:28:57.719Z,96261.03
2023-04-16T00:31:32.708Z,96272.53
2023-04-16T00:34:00.389Z,96268.47
2023-04-16T00:36:28.572Z,96266.25
2023-04-16T00:38:56.786Z,96266.00
2023-04-16T00:41:23.911Z,96259.69
2023-04-16T00:43:51.527Z,96257.63
2023-04-16T00:46:21.247Z,96267.22
2023-04-16T00:48:49.022Z,96268.09
2023-04-16T00:51:16.540Z,96261.63
2023-04-16T00:53:44.736Z,96267.47
2023-04-16T00:56:13.163Z,96262.34
2023-04-16T00:58:40.472Z,96269.16
2023-04-16T01:01:07.446Z,96263.84
2023-04-16T01:04:00.671Z,96264.44
2023-04-16T01:06:27.856Z,96262.66
2023-04-16T01:08:54.743Z,96254.72
2023-04-16T01:11:21.592Z,96264.84
2023-04-16T01:13:48.373Z,96263.84
2023-04-16T01:16:15.253Z,96267.09
2023-04-16T01:18:42.158Z,96271.72
2023-04-16T01:21:09.288Z,96257.97
2023-04-16T01:23:36.356Z,96263.75
2023-04-16T01:26:03.200Z,96265.19
2023-04-16T01:28:30.044Z,96274.66
2023-04-16T01:30:56.909Z,96284.06
2023-04-16T01:33:23.724Z,96286.56
2023-04-16T01:35:50.624Z,96286.97
2023-04-16T01:38:17.620Z,96287.19
2023-04-16T01:40:44.475Z,96280.47
2023-04-16T01:43:11.327Z,96285.56
2023-04-16T01:45:38.130Z,96290.84
2023-04-16T01:48:05.336Z,96277.97
2023-04-16T01:50:32.357Z,96288.06
2023-04-16T01:52:59.270Z,96280.22
2023-04-16T01:55:26.935Z,96290.41
2023-04-16T01:57:53.765Z,96286.22
2023-04-16T02:00:20.801Z,96284.69
2023-04-16T02:02:49.253Z,96285.81
2023-04-16T02:05:16.489Z,96282.72
2023-04-16T02:07:43.280Z,96285.97
2023-04-16T02:10:10.428Z,96287.34
2023-04-16T02:12:37.378Z,96283.41
2023-04-16T02:15:05.113Z,96291.97
2023-04-16T02:17:32.057Z,96285.22
2023-04-16T02:19:58.964Z,96290.09
2023-04-16T02:22:25.861Z,96289.78
2023-04-16T02:24:52.702Z,96292.47
2023-04-16T02:27:19.531Z,96290.41
2023-04-16T02:29:46.366Z,96297.91
2023-04-16T02:32:13.343Z,96295.66
2023-04-16T02:34:40.400Z,96295.88
2023-04-16T02:37:07.310Z,96294.19
2023-04-16T02:39:34.151Z,96303.22
2023-04-16T02:42:02.667Z,96309.63
2023-04-16T02:44:29.677Z,96299.19
2023-04-16T02:46:56.475Z,96307.69
2023-04-16T02:49:23.281Z,96314.81
2023-04-16T02:51:50.260Z,96306.94
2023-04-16T02:54:17.040Z,96315.91
2023-04-16T02:56:43.859Z,96311.31
2023-04-16T02:59:10.863Z,96313.50
2023-04-16T03:01:37.886Z,96318.31
2023-04-16T03:04:05.126Z,96314.22
2023-04-16T03:06:32.042Z,96308.72
2023-04-16T03:08:58.977Z,96309.16
2023-04-16T03:11:25.863Z,96315.19
2023-04-16T03:13:52.720Z,96316.53
2023-04-16T03:16:19.698Z,96311.66
2023-04-16T03:18:46.588Z,96309.41
2023-04-16T03:21:13.470Z,96316.91
2023-04-16T03:23:40.364Z,96311.00
2023-04-16T03:26:07.193Z,96322.06
2023-04-16T03:28:34.056Z,96318.00
2023-04-16T03:31:01.228Z,96322.16
2023-04-16T03:33:28.054Z,96325.41
2023-04-16T03:35:58.447Z,96326.56
2023-04-16T03:38:26.671Z,96326.66
2023-04-16T03:40:53.605Z,96324.88
2023-04-16T03:43:20.578Z,96332.09
2023-04-16T03:45:47.894Z,96335.84
2023-04-16T03:48:15.857Z,96337.16
2023-04-16T03:50:47.476Z,96330.03
2023-04-16T03:53:14.610Z,96331.22
2023-04-16T03:55:42.337Z,96332.28
2023-04-16T03:58:09.586Z,96344.91
2023-04-16T04:00:36.445Z,96336.34
2023-04-16T04:03:03.437Z,96347.16
2023-04-16T04:05:30.374Z,96353.31
2023-04-16T04:07:57.149Z,96354.50
2023-04-16T04:10:24.016Z,96351.25
2023-04-16T04:12:50.845Z,96352.50
2023-04-16T04:15:17.782Z,96346.50
2023-04-16T04:17:44.649Z,96340.38
2023-04-16T04:20:12.261Z,96348.81
2023-04-16T04:22:39.083Z,96344.47
2023-04-16T04:25:06.339Z,96355.44
2023-04-16T04:27:33.186Z,96356.41
2023-04-16T04:29:59.973Z,96354.53
2023-04-16T04:32:26.857Z,96358.00
2023-04-16T04:34:53.754Z,96351.41
2023-04-16T04:37:20.606Z,96359.94
2023-04-16T04:39:47.503Z,96357.94
2023-04-16T04:42:17.005Z,96363.53
2023-04-16T04:44:44.253Z,96362.78
2023-04-16T04:47:11.189Z,96361.91
2023-04-16T04:49:37.956Z,96367.03
2023-04-16T04:52:04.823Z,96366.59
2023-04-16T04:54:32.564Z,96362.94
2023-04-16T04:56:59.778Z,96373.94
2023-04-16T04:59:26.621Z,96381.16
2023-04-16T05:01:53.522Z,96377.88
2023-04-16T05:04:20.494Z,96373.88
2023-04-16T05:06:47.357Z,96376.63
2023-04-16T05:09:14.202Z,96382.72
2023-04-16T05:11:42.131Z,96378.09
2023-04-16T05:14:09.220Z,96386.41
2023-04-16T05:16:37.263Z,96388.13
2023-04-16T05:19:04.869Z,96396.69
2023-04-16T05:21:31.852Z,96400.94
2023-04-16T05:23:59.084Z,96404.03
2023-04-16T05:26:26.126Z,96403.81
2023-04-16T05:28:52.958Z,96412.19
2023-04-16T05:31:19.903Z,96406.41
2023-04-16T05:33:46.810Z,96415.34
2023-04-16T05:36:13.653Z,96406.31
2023-04-16T05:38:40.429Z,96416.38
2023-04-16T05:41:07.283Z,96418.19
2023-04-16T05:43:34.128Z,96409.81
2023-04-16T05:46:00.944Z,96421.31
2023-04-16T05:48:27.816Z,96419.84
2023-04-16T05:50:54.677Z,96413.44
2023-04-16T05:53:21.532Z,96416.16
2023-04-16T05:55:48.300Z,96420.59
2023-04-16T05:58:15.267Z,96427.69
2023-04-16T06:00:42.107Z,96428.94
2023-04-16T06:03:09.258Z,96431.81
2023-04-16T06:05:36.293Z,96428.69
2023-04-16T06:08:03.246Z,96427.19
2023-04-16T06:10:30.346Z,96428.94
2023-04-16T06:12:57.165Z,96440.31
2023-04-16T06:15:24.018Z,96436.31
2023-04-16T06:17:51.171Z,96437.13
2023-04-16T06:20:18.162Z,96449.66
2023-04-16T06:22:45.064Z,96444.31
2023-04-16T06:25:11.956Z,96448.66
2023-04-16T06:27:38.794Z,96452.13
2023-04-16T06:30:11.995Z,96446.13
2023-04-16T06:32:39.164Z,96447.31
2023-04-16T06:35:07.274Z,96463.41
2023-04-16T06:37:35.531Z,96458.72
2023-04-16T06:40:02.636Z,96459.94
2023-04-16T06:42:29.581Z,96465.19
2023-04-16T06:44:56.524Z,96459.16
2023-04-16T06:47:23.377Z,96466.03
2023-04-16T06:49:50.286Z,96460.78
2023-04-16T06:52:17.200Z,96465.66
2023-04-16T06:54:43.975Z,96469.31
2023-04-16T06:57:11.320Z,96470.44
2023-04-16T06:59:38.120Z,96474.88
2023-04-16T07:02:05.032Z,96469.97
2023-04-16T07:04:31.999Z,96472.00
2023-04-16T07:06:58.875Z,96468.78
2023-04-16T07:09:26.756Z,96464.41
2023-04-16T07:11:54.434Z,96473.97
2023-04-16T07:14:21.396Z,96472.59
2023-04-16T07:16:48.346Z,96465.38
2023-04-16T07:19:17.355Z,96465.81
2023-04-16T07:21:44.503Z,96472.69
2023-04-16T07:24:11.795Z,96478.53
2023-04-16T07:26:38.675Z,96462.19
2023-04-16T07:29:05.537Z,96469.78
2023-04-16T07:31:32.611Z,96464.56
2023-04-16T07:33:59.687Z,96466.72
2023-04-16T07:36:28.381Z,96468.06
2023-04-16T07:38:56.201Z,96469.31
2023-04-16T07:41:23.137Z,96466.44
2023-04-16T07:43:50.002Z,96474.34
2023-04-16T07:46:17.035Z,96471.69
2023-04-16T07:48:43.853Z,96467.28
2023-04-16T07:51:10.657Z,96472.06
2023-04-16T07:53:37.513Z,96475.09
2023-04-16T07:56:04.372Z,96470.91
2023-04-16T07:58:31.250Z,96475.09
2023-04-16T08:00:58.957Z,96469.34
2023-04-16T08:03:25.996Z,96477.28
2023-04-16T08:05:53.003Z,96480.00
2023-04-16T08:08:19.899Z,96483.19
2023-04-16T08:10:46.816Z,96481.69
2023-04-16T08:13:19.486Z,96488.47
2023-04-16T08:15:46.775Z,96492.22
2023-04-16T08:18:15.579Z,96493.13
2023-04-16T08:20:43.107Z,96505.91
2023-04-16T08:23:10.710Z,96499.38
2023-04-16T08:25:38.129Z,96497.16
2023-04-16T08:28:05.339Z,96499.13
2023-04-16T08:30:32.290Z,96494.66
2023-04-16T08:32:59.340Z,96504.59
2023-04-16T08:35:26.193Z,96502.94
2023-04-16T08:37:53.758Z,96502.16
2023-04-16T08:40:21.243Z,96512.34
2023-04-16T08:42:58.494Z,96502.22
2023-04-16T08:45:27.453Z,96509.50
2023-04-16T08:47:54.385Z,96514.72
2023-04-16T08:50:26.184Z,96515.78
2023-04-16T08:52:58.966Z,96518.53
2023-04-16T08:55:43.733Z,96525.19
2023-04-16T08:58:23.920Z,96514.78
2023-04-16T09:00:51.065Z,96520.84
2023-04-16T09:03:21.470Z,96529.41
2023-04-16T09:05:50.410Z,96528.97
2023-04-16T09:08:18.167Z,96529.28
2023-04-16T09:10:45.207Z,96516.06
2023-04-16T09:13:13.663Z,96529.00
2023-04-16T09:15:41.975Z,96528.78
2023-04-16T09:18:08.845Z,96532.97
2023-04-16T09:20:35.614Z,96538.16
2023-04-16T09:23:02.466Z,96532.22
2023-04-16T09:25:37.558Z,96530.91
2023-04-16T09:28:05.279Z,96535.03
2023-04-16T09:30:33.545Z,96539.78
2023-04-16T09:33:22.423Z,96540.16
2023-04-16T09:35:54.297Z,96543.28
2023-04-16T09:38:21.763Z,96546.38
2023-04-16T09:40:48.777Z,96541.41
2023-04-16T09:43:17.960Z,96541.34
2023-04-16T09:45:55.137Z,96535.81
2023-04-16T09:48:30.557Z,96534.03
2023-04-16T09:50:59.464Z,96540.00
2023-04-16T09:53:32.430Z,96533.97
2023-04-16T09:56:05.391Z,96534.31
2023-04-16T09:58:33.033Z,96537.06
2023-04-16T10:01:06.210Z,96546.44
2023-04-16T10:03:34.915Z,96548.41
2023-04-16T10:06:20.183Z,96552.31
2023-04-16T10:08:50.189Z,96541.56
2023-04-16T10:11:18.816Z,96543.94
2023-04-16T10:13:46.441Z,96550.66
2023-04-16T10:16:13.661Z,96543.25
2023-04-16T10:18:44.640Z,96552.88
2023-04-16T10:21:12.767Z,96553.06
2023-04-16T10:23:40.774Z,96551.03
2023-04-16T10:26:07.949Z,96545.34
2023-04-16T10:28:35.663Z,96547.19
2023-04-16T10:31:09.177Z,96555.63
2023-04-16T10:33:40.463Z,96566.31
2023-04-16T10:36:16.417Z,96551.09
2023-04-16T10:38:49.939Z,96548.19
2023-04-16T10:41:17.252Z,96546.03
2023-04-16T10:43:51.620Z,96547.41
2023-04-16T10:46:27.138Z,96549.78
2023-04-16T10:48:55.836Z,96550.81
2023-04-16T10:51:28.054Z,96551.09
2023-04-16T10:53:57.221Z,96554.13
2023-04-16T10:56:26.710Z,96554.63
2023-04-16T10:58:56.109Z,96555.63
2023-04-16T11:01:36.007Z,96557.84
2023-04-16T11:04:25.562Z,96561.63
2023-04-16T11:07:18.791Z,96566.63
2023-04-16T11:10:02.268Z,96555.41
2023-04-16T11:12:44.681Z,96567.28
2023-04-16T11:15:14.578Z,96566.63
2023-04-16T11:17:51.676Z,96570.47
2023-04-16T11:20:26.923Z,96565.38
2023-04-16T11:22:56.260Z,96571.81
2023-04-16T11:25:34.000Z,96565.63
2023-04-16T11:28:02.577Z,96568.31
2023-04-16T11:30:35.450Z,96573.00
2023-04-16T11:33:11.624Z,96570.31
2023-04-16T11:35:39.735Z,96562.91
2023-04-16T11:38:07.325Z,96564.50
2023-04-16T11:40:35.017Z,96562.16
2023-04-16T11:43:14.830Z,96561.16
2023-04-16T11:46:01.603Z,96568.03
2023-04-16T11:48:53.378Z,96565.94
2023-04-16T11:51:21.791Z,96572.56
2023-04-16T11:53:53.542Z,96564.00
2023-04-16T11:56:34.224Z,96566.69
2023-04-16T11:59:09.792Z,96565.41
2023-04-16T12:01:39.355Z,96575.81
2023-04-16T12:04:07.399Z,96565.22
2023-04-16T12:06:34.635Z,96570.22
2023-04-16T12:09:25.251Z,96580.13
2023-04-16T12:11:52.620Z,96573.03
2023-04-16T12:14:20.071Z,96563.91
2023-04-16T12:16:47.851Z,96556.75
2023-04-16T12:19:15.805Z,96567.91
2023-04-16T12:21:51.384Z,96568.38
2023-04-16T12:24:24.404Z,96558.66
2023-04-16T12:27:03.361Z,96566.78
2023-04-16T12:29:31.260Z,96575.31
2023-04-16T12:31:58.050Z,96577.47
2023-04-16T12:34:36.499Z,96569.22
2023-04-16T12:37:12.353Z,96580.78
2023-04-16T12:39:39.214Z,96570.47
2023-04-16T12:42:09.837Z,96567.88
2023-04-16T12:44:36.762Z,96571.66
2023-04-16T12:47:05.500Z,96571.28
2023-04-16T12:49:32.441Z,96572.81
2023-04-16T12:51:59.314Z,96574.22
2023-04-16T12:54:28.982Z,96570.38
2023-04-16T12:56:55.796Z,96581.97
2023-04-16T12:59:23.033Z,96574.31
2023-04-16T13:01:50.072Z,96580.13
2023-04-16T13:04:19.075Z,96578.19
2023-04-16T13:06:46.334Z,96578.25
2023-04-16T13:09:13.327Z,96580.22
2023-04-16T13:11:40.142Z,96573.28
2023-04-16T13:14:07.062Z,96575.94
2023-04-16T13:16:33.926Z,96577.13
2023-04-16T13:19:00.842Z,96575.34
2023-04-16T13:21:27.995Z,96570.84
2023-04-16T13:23:56.221Z,96575.03
2023-04-16T13:26:23.060Z,96577.19
2023-04-16T13:28:49.894Z,96578.81
2023-04-16T13:31:19.971Z,96574.44
2023-04-16T13:33:47.232Z,96570.69
2023-04-16T13:36:14.541Z,96577.34
2023-04-16T13:38:42.174Z,96574.94
2023-04-16T13:41:09.012Z,96579.47
2023-04-16T13:43:37.745Z,96583.06
2023-04-16T13:46:04.668Z,96581.84
2023-04-16T13:48:32.627Z,96576.59
2023-04-16T13:50:59.434Z,96580.22
2023-04-16T13:53:26.572Z,96585.34
2023-04-16T13:55:53.436Z,96587.13
2023-04-16T13:58:20.425Z,96587.44
2023-04-16T14:00:47.429Z,96588.44
2023-04-16T14:03:14.365Z,96592.91
2023-04-16T14:05:41.359Z,96587.19
2023-04-16T14:08:08.277Z,96586.97
2023-04-16T14:10:35.417Z,96591.84
2023-04-16T14:13:03.282Z,96593.72
2023-04-16T14:15:31.238Z,96590.91
2023-04-16T14:17:58.365Z,96589.72
2023-04-16T14:20:25.355Z,96590.53
2023-04-16T14:22:52.308Z,96593.63
2023-04-16T14:25:19.176Z,96600.81
2023-04-16T14:27:46.050Z,96595.28
2023-04-16T14:30:13.118Z,96594.66
2023-04-16T14:32:40.890Z,96593.41
2023-04-16T14:35:08.389Z,96596.81
2023-04-16T14:37:36.525Z,96601.81
2023-04-16T14:40:09.001Z,96601.41
2023-04-16T14:42:38.044Z,96595.69
2023-04-16T14:45:06.888Z,96598.13
2023-04-16T14:47:35.314Z,96594.53
2023-04-16T14:50:03.422Z,96595.78
2023-04-16T14:52:33.510Z,96600.34
2023-04-16T14:55:00.400Z,96605.22
2023-04-16T14:57:27.256Z,96601.13
2023-04-16T14:59:54.144Z,96600.66
2023-04-16T15:02:21.825Z,96590.56
2023-04-16T15:04:48.788Z,96601.38
2023-04-16T15:07:15.754Z,96592.38
2023-04-16T15:09:42.613Z,96601.06
2023-04-16T15:12:09.510Z,96600.28
2023-04-16T15:14:36.389Z,96598.56
2023-04-16T15:17:03.616Z,96605.53
2023-04-16T15:19:30.630Z,96602.03
2023-04-16T15:21:57.492Z,96608.78
2023-04-16T15:24:24.634Z,96605.00
2023-04-16T15:26:51.475Z,96607.59
2023-04-16T15:29:18.393Z,96610.63
2023-04-16T15:31:45.434Z,96605.56
2023-04-16T15:34:12.655Z,96602.53
2023-04-16T15:36:39.724Z,96608.06
2023-04-16T15:39:06.584Z,96603.06
2023-04-16T15:41:36.920Z,96613.34
2023-04-16T15:44:04.343Z,96621.25
2023-04-16T15:46:31.442Z,96613.97
2023-04-16T15:48:58.316Z,96621.44
2023-04-16T15:51:25.123Z,96625.50
2023-04-16T15:53:52.053Z,96615.31
2023-04-16T15:56:20.485Z,96630.22
2023-04-16T15:58:48.127Z,96621.63
2023-04-16T16:01:16.372Z,96620.28
2023-04-16T16:03:46.961Z,96624.25
2023-04-16T16:06:14.739Z,96619.03
2023-04-16T16:08:42.978Z,96619.84
2023-04-16T16:11:09.965Z,96627.53
2023-04-16T16:13:37.061Z,96632.00
2023-04-16T16:16:04.467Z,96632.00
2023-04-16T16:18:31.711Z,96628.34
2023-04-16T16:20:59.093Z,96628.72
2023-04-16T16:23:26.002Z,96626.22
2023-04-16T16:25:52.869Z,96639.28
2023-04-16T16:28:20.521Z,96634.00
2023-04-16T16:30:47.543Z,96632.75
2023-04-16T16:33:15.410Z,96631.47
2023-04-16T16:35:42.236Z,96639.66
2023-04-16T16:38:09.586Z,96633.47
2023-04-16T16:40:37.020Z,96629.13
2023-04-16T16:43:03.951Z,96639.13
2023-04-16T16:45:30.970Z,96639.25
2023-04-16T16:47:58.962Z,96642.34
2023-04-16T16:50:26.134Z,96639.63
2023-04-16T16:52:52.963Z,96645.66
2023-04-16T16:55:20.933Z,96650.75
2023-04-16T16:57:47.806Z,96645.28
2023-04-16T17:00:16.180Z,96650.09
2023-04-16T17:02:43.729Z,96659.00
2023-04-16T17:05:10.961Z,96659.78
2023-04-16T17:07:38.260Z,96666.66
2023-04-16T17:10:11.142Z,96666.84
2023-04-16T17:12:37.956Z,96663.81
2023-04-16T17:15:05.166Z,96664.81
2023-04-16T17:17:32.983Z,96668.53
2023-04-16T17:20:01.007Z,96670.97
2023-04-16T17:22:27.886Z,96673.03
2023-04-16T17:24:54.737Z,96670.19
2023-04-16T17:27:21.639Z,96672.19
2023-04-16T17:29:48.471Z,96676.28
2023-04-16T17:32:15.416Z,96679.50
2023-04-16T17:34:42.314Z,96679.91
2023-04-16T17:37:09.181Z,96686.81
2023-04-16T17:39:36.006Z,96680.69
2023-04-16T17:42:03.956Z,96681.91
2023-04-16T17:44:30.857Z,96685.53
2023-04-16T17:46:57.717Z,96681.28
2023-04-16T17:49:25.571Z,96679.78
2023-04-16T17:51:53.786Z,96693.13
2023-04-16T17:54:20.636Z,96690.72
2023-04-16T17:56:47.911Z,96687.44
2023-04-16T17:59:14.738Z,96696.66
2023-04-16T18:01:41.759Z,96702.66
2023-04-16T18:04:09.428Z,96704.97
2023-04-16T18:06:36.498Z,96695.19
2023-04-16T18:09:05.696Z,96702.47
2023-04-16T18:11:32.630Z,96702.41
2023-04-16T18:13:59.469Z,96702.66
2023-04-16T18:16:26.707Z,96705.69
2023-04-16T18:18:53.653Z,96712.59
2023-04-16T18:21:20.623Z,96716.34
2023-04-16T18:23:47.462Z,96730.06
2023-04-16T18:26:17.820Z,96723.13
2023-04-16T18:28:47.167Z,96717.34
2023-04-16T18:31:14.003Z,96718.09
2023-04-16T18:33:55.279Z,96712.84
2023-04-16T18:36:23.097Z,96728.06
2023-04-16T18:39:00.316Z,96736.84
2023-04-16T18:41:29.060Z,96736.69
2023-04-16T18:43:55.949Z,96736.19
2023-04-16T18:46:22.955Z,96748.78
2023-04-16T18:48:49.855Z,96755.69
2023-04-16T18:51:16.921Z,96756.06
2023-04-16T18:53:45.530Z,96750.50
2023-04-16T18:56:12.953Z,96751.09
2023-04-16T18:58:39.967Z,96754.72
2023-04-16T19:01:11.180Z,96754.78
2023-04-16T19:03:38.785Z,96764.22
2023-04-16T19:06:06.563Z,96765.03
2023-04-16T19:08:33.417Z,96758.63
2023-04-16T19:11:00.309Z,96756.47
2023-04-16T19:13:27.180Z,96758.03
2023-04-16T19:16:01.711Z,96757.38
2023-04-16T19:18:28.826Z,96761.75
2023-04-16T19:21:02.059Z,96758.13
2023-04-16T19:23:29.207Z,96760.81
2023-04-16T19:25:56.932Z,96765.06
2023-04-16T19:28:24.953Z,96761.81
2023-04-16T19:30:53.065Z,96764.44
2023-04-16T19:33:20.449Z,96768.03
2023-04-16T19:35:47.546Z,96768.84
2023-04-16T19:38:14.423Z,96773.28
2023-04-16T19:40:45.765Z,96766.06
2023-04-16T19:43:12.962Z,96769.94
2023-04-16T19:45:47.571Z,96768.63
2023-04-16T19:48:14.868Z,96771.84
2023-04-16T19:50:42.580Z,96773.16
2023-04-16T19:53:10.203Z,96776.75
2023-04-16T19:55:39.491Z,96773.28
2023-04-16T19:58:06.618Z,96767.19
2023-04-16T20:00:38.487Z,96775.84
2023-04-16T20:03:06.215Z,96771.66
2023-04-16T20:05:33.382Z,96780.53
2023-04-16T20:08:00.382Z,96782.50
2023-04-16T20:10:27.733Z,96775.41
2023-04-16T20:12:54.561Z,96777.03
2023-04-16T20:15:21.617Z,96779.69
2023-04-16T20:17:48.601Z,96770.91
2023-04-16T20:20:16.349Z,96774.22
2023-04-16T20:22:43.782Z,96777.47
2023-04-16T20:25:10.775Z,96770.47
2023-04-16T20:27:37.869Z,96769.06
2023-04-16T20:30:06.195Z,96777.56
2023-04-16T20:32:33.345Z,96778.25
2023-04-16T20:35:00.304Z,96782.50
2023-04-16T20:37:29.006Z,96782.66
2023-04-16T20:39:56.201Z,96776.66
2023-04-16T20:42:26.230Z,96781.75
2023-04-16T20:44:56.512Z,96783.88
2023-04-16T20:47:23.832Z,96774.75
2023-04-16T20:49:52.791Z,96774.09
2023-04-16T20:52:20.128Z,96778.72
2023-04-16T20:54:48.275Z,96775.13
2023-04-16T20:57:15.091Z,96782.47
2023-04-16T20:59:41.944Z,96775.47
2023-04-16T21:02:08.939Z,96781.31
2023-04-16T21:04:36.237Z,96782.16
2023-04-16T21:07:04.140Z,96785.88
2023-04-16T21:09:31.524Z,96788.25
2023-04-16T21:11:58.476Z,96786.13
2023-04-16T21:14:25.391Z,96796.09
2023-04-16T21:16:52.234Z,96787.63
2023-04-16T21:19:19.080Z,96783.69
2023-04-16T21:21:46.120Z,96791.84
2023-04-16T21:24:13.064Z,96792.13
2023-04-16T21:26:39.875Z,96792.94
2023-04-16T21:29:06.760Z,96785.75
2023-04-16T21:31:33.715Z,96785.88
2023-04-16T21:34:00.724Z,96785.88
2023-04-16T21:36:29.129Z,96794.56
2023-04-16T21:38:55.999Z,96785.25
2023-04-16T21:41:22.799Z,96792.78
2023-04-16T21:43:49.642Z,96795.09
2023-04-16T21:46:16.532Z,96786.41
2023-04-16T21:48:43.494Z,96789.47
2023-04-16T21:51:10.366Z,96793.44
2023-04-16T21:53:38.750Z,96786.56
2023-04-16T21:56:06.627Z,96796.75
2023-04-16T21:58:33.510Z,96800.38
2023-04-16T22:01:00.321Z,96794.50
2023-04-16T22:03:27.769Z,96797.44
2023-04-16T22:06:02.755Z,96795.50
2023-04-16T22:08:30.325Z,96800.06
2023-04-16T22:11:06.405Z,96797.28
2023-04-16T22:13:33.281Z,96788.66
2023-04-16T22:16:01.325Z,96790.13
2023-04-16T22:18:29.038Z,96783.94
2023-04-16T22:20:56.219Z,96784.09
2023-04-16T22:23:26.176Z,96784.72
2023-04-16T22:25:55.399Z,96790.78
2023-04-16T22:28:22.790Z,96785.09
2023-04-16T22:30:49.791Z,96777.59
2023-04-16T22:33:16.740Z,96779.19
2023-04-16T22:35:43.726Z,96784.41
2023-04-16T22:38:10.722Z,96788.19
2023-04-16T22:40:37.622Z,96789.03
2023-04-16T22:43:05.027Z,96782.81
2023-04-16T22:45:32.026Z,96784.63
2023-04-16T22:47:59.025Z,96772.34
2023-04-16T22:50:25.999Z,96772.66
2023-04-16T22:52:52.859Z,96773.66
2023-04-16T22:55:19.816Z,96764.31
2023-04-16T22:57:47.493Z,96770.38
2023-04-16T23:00:18.063Z,96772.81
2023-04-16T23:02:45.655Z,96769.56
2023-04-16T23:05:12.655Z,96773.97
2023-04-16T23:07:39.712Z,96770.38
2023-04-16T23:10:08.545Z,96761.72
2023-04-16T23:12:39.168Z,96774.28
2023-04-16T23:15:07.028Z,96772.16
2023-04-16T23:17:35.015Z,96766.16
2023-04-16T23:20:02.245Z,96769.75
2023-04-16T23:22:29.151Z,96775.63
2023-04-16T23:24:56.028Z,96774.50
2023-04-16T23:27:22.947Z,96779.38
2023-04-16T23:29:49.821Z,96775.78
2023-04-16T23:32:16.656Z,96768.44
2023-04-16T23:34:43.499Z,96773.19
2023-04-16T23:37:10.378Z,96770.72
2023-04-16T23:39:37.567Z,96778.22
2023-04-16T23:42:04.405Z,96772.97
2023-04-16T23:44:31.316Z,96774.28
2023-04-16T23:46:58.306Z,96772.97
2023-04-16T23:49:25.428Z,96774.78
2023-04-16T23:51:52.395Z,96778.50
2023-04-16T23:54:19.274Z,96763.81
2023-04-16T23:56:46.104Z,96778.47
2023-04-16T23:59:13.206Z,96780.47
